sensor_id;sensor_type;location;lat;lon;timestamp;pressure;altitude;pressure_sealevel;temperature;humidity
66857;BME280;53766;50.280;19.160;2024-03-02T00:01:39;97814.88;;;17.87;53.79
66857;BME280;53766;50.280;19.160;2024-03-02T00:04:07;97810.38;;;17.88;53.75
66857;BME280;53766;50.280;19.160;2024-03-02T00:06:35;97807.72;;;17.88;53.76
66857;BME280;53766;50.280;19.160;2024-03-02T00:09:03;97821.03;;;17.88;53.72
66857;BME280;53766;50.280;19.160;2024-03-02T00:11:35;97809.53;;;17.87;53.75
66857;BME280;53766;50.280;19.160;2024-03-02T00:14:03;97814.88;;;17.87;53.70
66857;BME280;53766;50.280;19.160;2024-03-02T00:16:31;97822.25;;;17.85;53.88
66857;BME280;53766;50.280;19.160;2024-03-02T00:19:03;97817.75;;;17.86;53.75
66857;BME280;53766;50.280;19.160;2024-03-02T00:21:31;97823.09;;;17.86;53.70
66857;BME280;53766;50.280;19.160;2024-03-02T00:23:59;97833.75;;;17.86;53.68
66857;BME280;53766;50.280;19.160;2024-03-02T00:26:28;97829.22;;;17.86;53.60
66857;BME280;53766;50.280;19.160;2024-03-02T00:28:56;97825.75;;;17.86;53.61
66857;BME280;53766;50.280;19.160;2024-03-02T00:31:25;97827.38;;;17.87;53.62
66857;BME280;53766;50.280;19.160;2024-03-02T00:33:53;97828.41;;;17.86;53.63
66857;BME280;53766;50.280;19.160;2024-03-02T00:36:25;97839.88;;;17.86;53.59
66857;BME280;53766;50.280;19.160;2024-03-02T00:38:54;97837.22;;;17.86;53.67
66857;BME280;53766;50.280;19.160;2024-03-02T00:41:27;97836.41;;;17.86;53.57
66857;BME280;53766;50.280;19.160;2024-03-02T00:44:02;97839.06;;;17.86;53.60
66857;BME280;53766;50.280;19.160;2024-03-02T00:46:35;97841.75;;;17.86;53.64
66857;BME280;53766;50.280;19.160;2024-03-02T00:49:06;97834.75;;;17.85;53.46
66857;BME280;53766;50.280;19.160;2024-03-02T00:51:39;97826.78;;;17.85;53.47
66857;BME280;53766;50.280;19.160;2024-03-02T00:54:09;97823.09;;;17.86;53.48
66857;BME280;53766;50.280;19.160;2024-03-02T00:56:38;97830.47;;;17.84;53.61
66857;BME280;53766;50.280;19.160;2024-03-02T00:59:05;97830.47;;;17.84;53.63
66857;BME280;53766;50.280;19.160;2024-03-02T01:01:33;97813.44;;;17.85;53.57
66857;BME280;53766;50.280;19.160;2024-03-02T01:04:00;97825.97;;;17.84;53.61
66857;BME280;53766;50.280;19.160;2024-03-02T01:06:28;97825.16;;;17.84;53.54
66857;BME280;53766;50.280;19.160;2024-03-02T01:08:56;97825.16;;;17.84;53.54
66857;BME280;53766;50.280;19.160;2024-03-02T01:11:23;97818.19;;;17.83;53.49
66857;BME280;53766;50.280;19.160;2024-03-02T01:13:51;97818.78;;;17.85;53.41
66857;BME280;53766;50.280;19.160;2024-03-02T01:16:20;97814.50;;;17.84;53.57
66857;BME280;53766;50.280;19.160;2024-03-02T01:18:48;97814.50;;;17.84;53.43
66857;BME280;53766;50.280;19.160;2024-03-02T01:21:16;97814.50;;;17.84;53.72
66857;BME280;53766;50.280;19.160;2024-03-02T01:23:45;97804.84;;;17.83;53.34
66857;BME280;53766;50.280;19.160;2024-03-02T01:26:13;97799.53;;;17.83;53.55
66857;BME280;53766;50.280;19.160;2024-03-02T01:28:40;97792.38;;;17.83;53.64
66857;BME280;53766;50.280;19.160;2024-03-02T01:31:08;97791.53;;;17.83;53.60
66857;BME280;53766;50.280;19.160;2024-03-02T01:33:36;97802.19;;;17.83;53.40
66857;BME280;53766;50.280;19.160;2024-03-02T01:36:04;97789.91;;;17.82;53.45
66857;BME280;53766;50.280;19.160;2024-03-02T01:38:32;97805.91;;;17.82;53.51
66857;BME280;53766;50.280;19.160;2024-03-02T01:40:59;97797.06;;;17.81;53.48
66857;BME280;53766;50.280;19.160;2024-03-02T01:43:27;97799.72;;;17.81;53.53
66857;BME280;53766;50.280;19.160;2024-03-02T01:45:55;97795.84;;;17.84;53.48
66857;BME280;53766;50.280;19.160;2024-03-02T01:48:24;97789.91;;;17.82;53.47
66857;BME280;53766;50.280;19.160;2024-03-02T01:50:51;97789.91;;;17.82;53.51
66857;BME280;53766;50.280;19.160;2024-03-02T01:53:19;97789.91;;;17.82;53.46
66857;BME280;53766;50.280;19.160;2024-03-02T01:55:47;97785.56;;;17.81;53.45
66857;BME280;53766;50.280;19.160;2024-03-02T01:58:14;97782.91;;;17.81;53.48
66857;BME280;53766;50.280;19.160;2024-03-02T02:00:42;97777.59;;;17.81;53.57
66857;BME280;53766;50.280;19.160;2024-03-02T02:03:10;97783.75;;;17.81;53.45
66857;BME280;53766;50.280;19.160;2024-03-02T02:05:37;97781.94;;;17.82;53.34
66857;BME280;53766;50.280;19.160;2024-03-02T02:08:05;97772.25;;;17.81;53.40
66857;BME280;53766;50.280;19.160;2024-03-02T02:10:33;97770.44;;;17.81;53.44
66857;BME280;53766;50.280;19.160;2024-03-02T02:13:01;97769.84;;;17.79;53.34
66857;BME280;53766;50.280;19.160;2024-03-02T02:15:29;97764.50;;;17.79;53.44
66857;BME280;53766;50.280;19.160;2024-03-02T02:17:58;97761.00;;;17.79;53.41
66857;BME280;53766;50.280;19.160;2024-03-02T02:20:27;97763.66;;;17.79;53.43
66857;BME280;53766;50.280;19.160;2024-03-02T02:23:01;97763.66;;;17.79;53.48
66857;BME280;53766;50.280;19.160;2024-03-02T02:25:29;97763.91;;;17.77;53.37
66857;BME280;53766;50.280;19.160;2024-03-02T02:27:57;97766.34;;;17.79;53.47
66857;BME280;53766;50.280;19.160;2024-03-02T02:30:30;97772.69;;;17.78;53.48
66857;BME280;53766;50.280;19.160;2024-03-02T02:32:58;97768.19;;;17.78;53.43
66857;BME280;53766;50.280;19.160;2024-03-02T02:35:26;97767.38;;;17.78;53.35
66857;BME280;53766;50.280;19.160;2024-03-02T02:37:55;97762.06;;;17.78;53.63
66857;BME280;53766;50.280;19.160;2024-03-02T02:40:24;97759.38;;;17.78;53.61
66857;BME280;53766;50.280;19.160;2024-03-02T02:42:52;97767.38;;;17.78;53.70
66857;BME280;53766;50.280;19.160;2024-03-02T02:45:20;97760.41;;;17.77;53.40
66857;BME280;53766;50.280;19.160;2024-03-02T02:47:49;97766.56;;;17.77;53.50
66857;BME280;53766;50.280;19.160;2024-03-02T02:50:17;97770.25;;;17.76;53.51
66857;BME280;53766;50.280;19.160;2024-03-02T02:52:44;97769.22;;;17.77;53.51
66857;BME280;53766;50.280;19.160;2024-03-02T02:55:13;97766.56;;;17.77;53.48
66857;BME280;53766;50.280;19.160;2024-03-02T02:57:41;97769.22;;;17.77;53.35
66857;BME280;53766;50.280;19.160;2024-03-02T03:00:13;97764.13;;;17.76;53.47
66857;BME280;53766;50.280;19.160;2024-03-02T03:02:46;97770.25;;;17.76;53.32
66857;BME280;53766;50.280;19.160;2024-03-02T03:05:17;97760.41;;;17.77;53.39
66857;BME280;53766;50.280;19.160;2024-03-02T03:07:45;97760.41;;;17.77;53.12
66857;BME280;53766;50.280;19.160;2024-03-02T03:10:13;97765.72;;;17.77;53.47
66857;BME280;53766;50.280;19.160;2024-03-02T03:12:42;97761.44;;;17.76;53.48
66857;BME280;53766;50.280;19.160;2024-03-02T03:15:12;97770.50;;;17.75;53.46
66857;BME280;53766;50.280;19.160;2024-03-02T03:17:40;97767.81;;;17.75;53.49
66857;BME280;53766;50.280;19.160;2024-03-02T03:20:08;97765.16;;;17.75;53.52
66857;BME280;53766;50.280;19.160;2024-03-02T03:22:42;97760.84;;;17.74;53.32
66857;BME280;53766;50.280;19.160;2024-03-02T03:25:10;97759.84;;;17.75;53.30
66857;BME280;53766;50.280;19.160;2024-03-02T03:27:38;97766.97;;;17.74;53.28
66857;BME280;53766;50.280;19.160;2024-03-02T03:30:06;97753.66;;;17.74;53.38
66857;BME280;53766;50.280;19.160;2024-03-02T03:32:34;97759.00;;;17.74;53.51
66857;BME280;53766;50.280;19.160;2024-03-02T03:35:03;97759.00;;;17.74;53.35
66857;BME280;53766;50.280;19.160;2024-03-02T03:37:31;97759.22;;;17.73;53.37
66857;BME280;53766;50.280;19.160;2024-03-02T03:40:02;97757.38;;;17.73;53.29
66857;BME280;53766;50.280;19.160;2024-03-02T03:42:30;97760.03;;;17.73;53.36
66857;BME280;53766;50.280;19.160;2024-03-02T03:44:58;97759.22;;;17.73;53.41
66857;BME280;53766;50.280;19.160;2024-03-02T03:47:26;97765.38;;;17.73;53.41
66857;BME280;53766;50.280;19.160;2024-03-02T03:49:53;97763.50;;;17.74;53.19
66857;BME280;53766;50.280;19.160;2024-03-02T03:52:21;97766.16;;;17.74;53.23
66857;BME280;53766;50.280;19.160;2024-03-02T03:54:48;97761.66;;;17.74;53.25
66857;BME280;53766;50.280;19.160;2024-03-02T03:57:16;97760.03;;;17.73;53.13
66857;BME280;53766;50.280;19.160;2024-03-02T03:59:44;97756.34;;;17.74;53.16
66857;BME280;53766;50.280;19.160;2024-03-02T04:02:13;97755.53;;;17.74;53.02
66857;BME280;53766;50.280;19.160;2024-03-02T04:04:41;97753.91;;;17.73;53.33
66857;BME280;53766;50.280;19.160;2024-03-02T04:07:08;97746.13;;;17.71;53.28
66857;BME280;53766;50.280;19.160;2024-03-02T04:09:36;97748.56;;;17.73;53.19
66857;BME280;53766;50.280;19.160;2024-03-02T04:12:03;97749.38;;;17.73;53.05
66857;BME280;53766;50.280;19.160;2024-03-02T04:14:34;97751.25;;;17.73;53.03
66857;BME280;53766;50.280;19.160;2024-03-02T04:17:02;97755.53;;;17.74;53.13
66857;BME280;53766;50.280;19.160;2024-03-02T04:19:30;97753.91;;;17.73;52.84
66857;BME280;53766;50.280;19.160;2024-03-02T04:22:17;97761.66;;;17.74;52.87
66857;BME280;53766;50.280;19.160;2024-03-02T04:24:52;97759.22;;;17.73;52.97
66857;BME280;53766;50.280;19.160;2024-03-02T04:27:20;97774.38;;;17.72;52.97
66857;BME280;53766;50.280;19.160;2024-03-02T04:29:47;97774.16;;;17.74;52.85
66857;BME280;53766;50.280;19.160;2024-03-02T04:32:15;97770.69;;;17.73;52.92
66857;BME280;53766;50.280;19.160;2024-03-02T04:34:43;97765.56;;;17.72;52.79
66857;BME280;53766;50.280;19.160;2024-03-02T04:37:11;97769.03;;;17.72;52.61
66857;BME280;53766;50.280;19.160;2024-03-02T04:39:39;97769.03;;;17.72;52.99
66857;BME280;53766;50.280;19.160;2024-03-02T04:42:07;97784.22;;;17.72;52.86
66857;BME280;53766;50.280;19.160;2024-03-02T04:44:34;97769.88;;;17.73;52.82
66857;BME280;53766;50.280;19.160;2024-03-02T04:47:02;97768.25;;;17.72;52.83
66857;BME280;53766;50.280;19.160;2024-03-02T04:49:30;97769.88;;;17.73;52.87
66857;BME280;53766;50.280;19.160;2024-03-02T04:51:58;97769.03;;;17.72;52.66
66857;BME280;53766;50.280;19.160;2024-03-02T04:54:26;97767.44;;;17.71;52.79
66857;BME280;53766;50.280;19.160;2024-03-02T04:56:54;97769.28;;;17.71;52.70
66857;BME280;53766;50.280;19.160;2024-03-02T04:59:22;97771.94;;;17.71;52.76
66857;BME280;53766;50.280;19.160;2024-03-02T05:01:49;97771.94;;;17.71;52.75
66857;BME280;53766;50.280;19.160;2024-03-02T05:04:17;97769.28;;;17.71;52.71
66857;BME280;53766;50.280;19.160;2024-03-02T05:06:45;97762.09;;;17.71;52.67
66857;BME280;53766;50.280;19.160;2024-03-02T05:09:19;97771.94;;;17.71;52.81
66857;BME280;53766;50.280;19.160;2024-03-02T05:11:47;97775.63;;;17.69;52.70
66857;BME280;53766;50.280;19.160;2024-03-02T05:14:37;97790.78;;;17.69;52.70
66857;BME280;53766;50.280;19.160;2024-03-02T05:17:05;97779.34;;;17.68;52.79
66857;BME280;53766;50.280;19.160;2024-03-02T05:19:33;97786.28;;;17.69;52.71
66857;BME280;53766;50.280;19.160;2024-03-02T05:22:01;97786.28;;;17.69;52.66
66857;BME280;53766;50.280;19.160;2024-03-02T05:24:28;97791.59;;;17.69;52.77
66857;BME280;53766;50.280;19.160;2024-03-02T05:26:56;97790.78;;;17.69;52.58
66857;BME280;53766;50.280;19.160;2024-03-02T05:29:24;97796.13;;;17.69;52.51
66857;BME280;53766;50.280;19.160;2024-03-02T05:31:51;97798.56;;;17.71;52.70
66857;BME280;53766;50.280;19.160;2024-03-02T05:34:19;97798.56;;;17.71;52.69
66857;BME280;53766;50.280;19.160;2024-03-02T05:36:47;97795.91;;;17.71;53.10
66857;BME280;53766;50.280;19.160;2024-03-02T05:39:14;97802.25;;;17.69;52.79
66857;BME280;53766;50.280;19.160;2024-03-02T05:41:42;97809.22;;;17.71;53.00
66857;BME280;53766;50.280;19.160;2024-03-02T05:44:10;97812.91;;;17.69;52.90
66857;BME280;53766;50.280;19.160;2024-03-02T05:46:37;97807.56;;;17.69;53.06
66857;BME280;53766;50.280;19.160;2024-03-02T05:49:07;97812.91;;;17.69;53.13
66857;BME280;53766;50.280;19.160;2024-03-02T05:51:35;97802.25;;;17.69;53.23
66857;BME280;53766;50.280;19.160;2024-03-02T05:54:03;97812.09;;;17.69;53.31
66857;BME280;53766;50.280;19.160;2024-03-02T05:56:30;97805.97;;;17.68;53.19
66857;BME280;53766;50.280;19.160;2024-03-02T05:58:58;97809.44;;;17.69;53.32
66857;BME280;53766;50.280;19.160;2024-03-02T06:01:45;97813.94;;;17.68;53.64
66857;BME280;53766;50.280;19.160;2024-03-02T06:04:18;97814.97;;;17.67;53.54
66857;BME280;53766;50.280;19.160;2024-03-02T06:06:45;97816.63;;;17.68;53.27
66857;BME280;53766;50.280;19.160;2024-03-02T06:09:13;97816.63;;;17.68;53.23
66857;BME280;53766;50.280;19.160;2024-03-02T06:11:41;97821.09;;;17.68;53.42
66857;BME280;53766;50.280;19.160;2024-03-02T06:14:09;97827.25;;;17.68;53.44
66857;BME280;53766;50.280;19.160;2024-03-02T06:16:36;97825.63;;;17.67;53.36
66857;BME280;53766;50.280;19.160;2024-03-02T06:19:04;97821.09;;;17.68;53.37
66857;BME280;53766;50.280;19.160;2024-03-02T06:21:32;97825.63;;;17.67;53.36
66857;BME280;53766;50.280;19.160;2024-03-02T06:24:01;97820.28;;;17.67;53.33
66857;BME280;53766;50.280;19.160;2024-03-02T06:26:28;97831.75;;;17.68;53.39
66857;BME280;53766;50.280;19.160;2024-03-02T06:28:57;97828.28;;;17.67;53.27
66857;BME280;53766;50.280;19.160;2024-03-02T06:31:24;97829.09;;;17.68;53.21
66857;BME280;53766;50.280;19.160;2024-03-02T06:33:52;97832.59;;;17.68;53.17
66857;BME280;53766;50.280;19.160;2024-03-02T06:36:20;97825.63;;;17.67;53.22
66857;BME280;53766;50.280;19.160;2024-03-02T06:38:48;97824.81;;;17.67;53.38
66857;BME280;53766;50.280;19.160;2024-03-02T06:41:16;97824.00;;;17.66;53.21
66857;BME280;53766;50.280;19.160;2024-03-02T06:43:44;97824.00;;;17.66;53.04
66857;BME280;53766;50.280;19.160;2024-03-02T06:46:11;97825.63;;;17.67;53.17
66857;BME280;53766;50.280;19.160;2024-03-02T06:48:42;97828.28;;;17.67;52.98
66857;BME280;53766;50.280;19.160;2024-03-02T06:51:09;97836.28;;;17.67;53.15
66857;BME280;53766;50.280;19.160;2024-03-02T06:53:37;97826.44;;;17.68;53.14
66857;BME280;53766;50.280;19.160;2024-03-02T06:56:05;97821.09;;;17.68;53.11
66857;BME280;53766;50.280;19.160;2024-03-02T06:58:34;97827.47;;;17.67;53.23
66857;BME280;53766;50.280;19.160;2024-03-02T07:01:01;97823.75;;;17.68;53.09
66857;BME280;53766;50.280;19.160;2024-03-02T07:03:29;97827.25;;;17.68;53.04
66857;BME280;53766;50.280;19.160;2024-03-02T07:05:57;97821.94;;;17.68;53.10
66857;BME280;53766;50.280;19.160;2024-03-02T07:08:24;97833.59;;;17.67;52.82
66857;BME280;53766;50.280;19.160;2024-03-02T07:10:52;97837.06;;;17.68;52.62
66857;BME280;53766;50.280;19.160;2024-03-02T07:13:20;97831.53;;;17.69;52.70
66857;BME280;53766;50.280;19.160;2024-03-02T07:15:47;97832.59;;;17.68;52.86
66857;BME280;53766;50.280;19.160;2024-03-02T07:18:28;97832.59;;;17.68;52.80
66857;BME280;53766;50.280;19.160;2024-03-02T07:20:56;97829.94;;;17.68;52.74
66857;BME280;53766;50.280;19.160;2024-03-02T07:23:26;97828.06;;;17.69;52.86
66857;BME280;53766;50.280;19.160;2024-03-02T07:25:54;97835.03;;;17.70;52.93
66857;BME280;53766;50.280;19.160;2024-03-02T07:28:27;97842.81;;;17.72;53.03
66857;BME280;53766;50.280;19.160;2024-03-02T07:31:01;97846.06;;;17.74;53.24
66857;BME280;53766;50.280;19.160;2024-03-02T07:33:29;97848.13;;;17.72;53.34
66857;BME280;53766;50.280;19.160;2024-03-02T07:35:57;97845.25;;;17.73;53.40
66857;BME280;53766;50.280;19.160;2024-03-02T07:38:29;97851.41;;;17.74;53.26
66857;BME280;53766;50.280;19.160;2024-03-02T07:40:57;97850.59;;;17.73;53.46
66857;BME280;53766;50.280;19.160;2024-03-02T07:43:25;97856.72;;;17.74;53.29
66857;BME280;53766;50.280;19.160;2024-03-02T07:45:53;97856.72;;;17.74;53.19
66857;BME280;53766;50.280;19.160;2024-03-02T07:48:21;97858.38;;;17.75;53.38
66857;BME280;53766;50.280;19.160;2024-03-02T07:50:48;97864.72;;;17.74;53.38
66857;BME280;53766;50.280;19.160;2024-03-02T07:53:16;97863.47;;;17.76;53.29
66857;BME280;53766;50.280;19.160;2024-03-02T07:55:44;97853.63;;;17.77;53.21
66857;BME280;53766;50.280;19.160;2024-03-02T07:58:11;97850.97;;;17.77;53.07
66857;BME280;53766;50.280;19.160;2024-03-02T08:00:40;97859.78;;;17.77;52.95
66857;BME280;53766;50.280;19.160;2024-03-02T08:03:08;97865.94;;;17.78;53.08
66857;BME280;53766;50.280;19.160;2024-03-02T08:05:38;97857.13;;;17.77;53.04
66857;BME280;53766;50.280;19.160;2024-03-02T08:08:06;97864.88;;;17.79;52.93
66857;BME280;53766;50.280;19.160;2024-03-02T08:10:33;97866.53;;;17.80;52.89
66857;BME280;53766;50.280;19.160;2024-03-02T08:13:01;97871.84;;;17.80;53.16
66857;BME280;53766;50.280;19.160;2024-03-02T08:15:29;97876.13;;;17.81;52.90
66857;BME280;53766;50.280;19.160;2024-03-02T08:17:57;97873.47;;;17.81;52.69
66857;BME280;53766;50.280;19.160;2024-03-02T08:20:24;97881.28;;;17.82;52.37
66857;BME280;53766;50.280;19.160;2024-03-02T08:22:52;97878.81;;;17.81;52.60
66857;BME280;53766;50.280;19.160;2024-03-02T08:25:22;97872.66;;;17.80;52.58
66857;BME280;53766;50.280;19.160;2024-03-02T08:27:50;97880.66;;;17.80;52.39
66857;BME280;53766;50.280;19.160;2024-03-02T08:30:17;97879.66;;;17.81;52.33
66857;BME280;53766;50.280;19.160;2024-03-02T08:32:45;97881.47;;;17.81;52.26
66857;BME280;53766;50.280;19.160;2024-03-02T08:35:14;97881.47;;;17.81;52.33
66857;BME280;53766;50.280;19.160;2024-03-02T08:37:42;97884.13;;;17.81;52.33
66857;BME280;53766;50.280;19.160;2024-03-02T08:40:10;97883.31;;;17.80;52.29
66857;BME280;53766;50.280;19.160;2024-03-02T08:42:44;97885.81;;;17.82;52.41
66857;BME280;53766;50.280;19.160;2024-03-02T08:45:13;97883.31;;;17.80;52.27
66857;BME280;53766;50.280;19.160;2024-03-02T08:47:41;97878.81;;;17.81;52.34
66857;BME280;53766;50.280;19.160;2024-03-02T08:50:08;97884.97;;;17.81;52.43
66857;BME280;53766;50.280;19.160;2024-03-02T08:52:36;97883.16;;;17.82;52.23
66857;BME280;53766;50.280;19.160;2024-03-02T08:55:04;97875.16;;;17.82;52.36
66857;BME280;53766;50.280;19.160;2024-03-02T08:57:33;97891.13;;;17.82;52.40
66857;BME280;53766;50.280;19.160;2024-03-02T09:00:01;97892.13;;;17.81;52.35
66857;BME280;53766;50.280;19.160;2024-03-02T09:02:28;97898.28;;;17.81;52.27
66857;BME280;53766;50.280;19.160;2024-03-02T09:04:56;97894.78;;;17.81;52.54
66857;BME280;53766;50.280;19.160;2024-03-02T09:07:23;97896.47;;;17.82;52.65
66857;BME280;53766;50.280;19.160;2024-03-02T09:09:51;97889.47;;;17.81;52.40
66857;BME280;53766;50.280;19.160;2024-03-02T09:12:20;97895.63;;;17.81;52.42
66857;BME280;53766;50.280;19.160;2024-03-02T09:14:47;97887.44;;;17.83;52.39
66857;BME280;53766;50.280;19.160;2024-03-02T09:17:15;97896.47;;;17.82;52.50
66857;BME280;53766;50.280;19.160;2024-03-02T09:19:43;97891.13;;;17.82;52.38
66857;BME280;53766;50.280;19.160;2024-03-02T09:22:11;97891.13;;;17.82;52.38
66857;BME280;53766;50.280;19.160;2024-03-02T09:24:39;97905.44;;;17.81;52.35
66857;BME280;53766;50.280;19.160;2024-03-02T09:27:07;97892.97;;;17.81;52.39
66857;BME280;53766;50.280;19.160;2024-03-02T09:29:34;97898.09;;;17.83;52.47
66857;BME280;53766;50.280;19.160;2024-03-02T09:32:02;97895.41;;;17.83;52.33
66857;BME280;53766;50.280;19.160;2024-03-02T09:34:30;97891.13;;;17.82;52.43
66857;BME280;53766;50.280;19.160;2024-03-02T09:36:57;97892.75;;;17.83;52.28
66857;BME280;53766;50.280;19.160;2024-03-02T09:39:25;97910.38;;;17.84;52.12
66857;BME280;53766;50.280;19.160;2024-03-02T09:41:53;97911.41;;;17.83;52.23
66857;BME280;53766;50.280;19.160;2024-03-02T09:44:22;97912.25;;;17.83;52.31
66857;BME280;53766;50.280;19.160;2024-03-02T09:46:49;97912.00;;;17.85;52.20
66857;BME280;53766;50.280;19.160;2024-03-02T09:49:18;97910.38;;;17.84;52.22
66857;BME280;53766;50.280;19.160;2024-03-02T09:51:47;97906.91;;;17.83;52.20
66857;BME280;53766;50.280;19.160;2024-03-02T09:54:16;97912.00;;;17.85;52.06
66857;BME280;53766;50.280;19.160;2024-03-02T09:56:50;97901.34;;;17.85;51.91
66857;BME280;53766;50.280;19.160;2024-03-02T09:59:18;97900.34;;;17.86;52.11
66857;BME280;53766;50.280;19.160;2024-03-02T10:02:01;97904.63;;;17.87;52.07
66857;BME280;53766;50.280;19.160;2024-03-02T10:04:30;97912.63;;;17.87;52.01
66857;BME280;53766;50.280;19.160;2024-03-02T10:07:10;97914.47;;;17.86;52.03
66857;BME280;53766;50.280;19.160;2024-03-02T10:09:40;97903.00;;;17.86;51.90
66857;BME280;53766;50.280;19.160;2024-03-02T10:12:09;97904.63;;;17.87;51.99
66857;BME280;53766;50.280;19.160;2024-03-02T10:15:05;97906.28;;;17.88;51.87
66857;BME280;53766;50.280;19.160;2024-03-02T10:17:33;97906.28;;;17.88;52.01
66857;BME280;53766;50.280;19.160;2024-03-02T10:20:23;97905.22;;;17.89;51.96
66857;BME280;53766;50.280;19.160;2024-03-02T10:22:52;97910.56;;;17.89;51.96
66857;BME280;53766;50.280;19.160;2024-03-02T10:25:32;97907.91;;;17.89;51.92
66857;BME280;53766;50.280;19.160;2024-03-02T10:28:17;97917.75;;;17.88;51.88
66857;BME280;53766;50.280;19.160;2024-03-02T10:30:47;97916.69;;;17.89;51.86
66857;BME280;53766;50.280;19.160;2024-03-02T10:33:17;97913.22;;;17.89;52.10
66857;BME280;53766;50.280;19.160;2024-03-02T10:35:44;97920.19;;;17.90;51.88
66857;BME280;53766;50.280;19.160;2024-03-02T10:38:13;97916.50;;;17.91;51.79
66857;BME280;53766;50.280;19.160;2024-03-02T10:40:40;97921.00;;;17.91;51.75
66857;BME280;53766;50.280;19.160;2024-03-02T10:43:08;97911.16;;;17.91;51.65
66857;BME280;53766;50.280;19.160;2024-03-02T10:45:36;97923.47;;;17.92;51.83
66857;BME280;53766;50.280;19.160;2024-03-02T10:48:04;97919.75;;;17.93;51.61
66857;BME280;53766;50.280;19.160;2024-03-02T10:50:33;97925.28;;;17.92;51.95
66857;BME280;53766;50.280;19.160;2024-03-02T10:53:01;97923.47;;;17.92;51.76
66857;BME280;53766;50.280;19.160;2024-03-02T10:55:28;97913.81;;;17.91;51.82
66857;BME280;53766;50.280;19.160;2024-03-02T10:58:00;97914.44;;;17.93;51.92
66857;BME280;53766;50.280;19.160;2024-03-02T11:00:33;97915.47;;;17.92;51.86
66857;BME280;53766;50.280;19.160;2024-03-02T11:03:06;97923.47;;;17.92;51.88
66857;BME280;53766;50.280;19.160;2024-03-02T11:05:38;97921.38;;;17.94;51.84
66857;BME280;53766;50.280;19.160;2024-03-02T11:08:08;97923.47;;;17.92;51.96
66857;BME280;53766;50.280;19.160;2024-03-02T11:10:49;97911.78;;;17.93;51.88
66857;BME280;53766;50.280;19.160;2024-03-02T11:13:28;97918.72;;;17.94;52.04
66857;BME280;53766;50.280;19.160;2024-03-02T11:16:04;97916.06;;;17.94;52.16
66857;BME280;53766;50.280;19.160;2024-03-02T11:18:34;97907.03;;;17.95;52.09
66857;BME280;53766;50.280;19.160;2024-03-02T11:21:02;97900.06;;;17.94;52.28
66857;BME280;53766;50.280;19.160;2024-03-02T11:23:34;97901.72;;;17.95;52.34
66857;BME280;53766;50.280;19.160;2024-03-02T11:26:21;97903.34;;;17.96;52.31
66857;BME280;53766;50.280;19.160;2024-03-02T11:28:50;97896.38;;;17.95;52.37
66857;BME280;53766;50.280;19.160;2024-03-02T11:31:17;97896.19;;;17.97;52.30
66857;BME280;53766;50.280;19.160;2024-03-02T11:33:45;97887.34;;;17.96;52.46
66857;BME280;53766;50.280;19.160;2024-03-02T11:36:13;97891.66;;;17.97;52.45
66857;BME280;53766;50.280;19.160;2024-03-02T11:38:43;97889.00;;;17.97;52.50
66857;BME280;53766;50.280;19.160;2024-03-02T11:41:11;97889.00;;;17.97;52.59
66857;BME280;53766;50.280;19.160;2024-03-02T11:43:41;97889.00;;;17.97;52.72
66857;BME280;53766;50.280;19.160;2024-03-02T11:46:10;97886.34;;;17.97;52.62
66857;BME280;53766;50.280;19.160;2024-03-02T11:48:39;97884.47;;;17.98;52.75
66857;BME280;53766;50.280;19.160;2024-03-02T11:51:07;97890.63;;;17.98;52.71
66857;BME280;53766;50.280;19.160;2024-03-02T11:53:38;97881.00;;;17.97;52.62
66857;BME280;53766;50.280;19.160;2024-03-02T11:56:09;97879.97;;;17.98;52.74
66857;BME280;53766;50.280;19.160;2024-03-02T11:58:37;97878.94;;;17.99;52.78
66857;BME280;53766;50.280;19.160;2024-03-02T12:01:10;97877.91;;;18.00;52.87
66857;BME280;53766;50.280;19.160;2024-03-02T12:03:38;97867.47;;;17.99;52.61
66857;BME280;53766;50.280;19.160;2024-03-02T12:06:06;97878.13;;;17.99;52.80
66857;BME280;53766;50.280;19.160;2024-03-02T12:08:34;97873.63;;;17.99;52.89
66857;BME280;53766;50.280;19.160;2024-03-02T12:11:02;97869.31;;;17.98;52.86
66857;BME280;53766;50.280;19.160;2024-03-02T12:13:31;97877.09;;;18.00;52.66
66857;BME280;53766;50.280;19.160;2024-03-02T12:15:59;97865.63;;;17.99;52.74
66857;BME280;53766;50.280;19.160;2024-03-02T12:18:27;97864.56;;;18.00;52.88
66857;BME280;53766;50.280;19.160;2024-03-02T12:20:55;97862.97;;;17.99;52.82
66857;BME280;53766;50.280;19.160;2024-03-02T12:23:26;97868.91;;;18.01;52.81
66857;BME280;53766;50.280;19.160;2024-03-02T12:25:54;97859.25;;;18.00;52.90
66857;BME280;53766;50.280;19.160;2024-03-02T12:28:22;97855.56;;;18.01;52.96
66857;BME280;53766;50.280;19.160;2024-03-02T12:30:50;97858.22;;;18.01;52.77
66857;BME280;53766;50.280;19.160;2024-03-02T12:33:19;97858.22;;;18.01;52.76
66857;BME280;53766;50.280;19.160;2024-03-02T12:35:49;97865.19;;;18.02;52.91
66857;BME280;53766;50.280;19.160;2024-03-02T12:38:16;97865.19;;;18.02;52.76
66857;BME280;53766;50.280;19.160;2024-03-02T12:40:44;97863.56;;;18.01;52.80
66857;BME280;53766;50.280;19.160;2024-03-02T12:43:11;97859.84;;;18.02;52.67
66857;BME280;53766;50.280;19.160;2024-03-02T12:45:39;97864.97;;;18.04;52.71
66857;BME280;53766;50.280;19.160;2024-03-02T12:48:07;97857.19;;;18.02;52.60
66857;BME280;53766;50.280;19.160;2024-03-02T12:50:34;97858.84;;;18.03;52.66
66857;BME280;53766;50.280;19.160;2024-03-02T12:53:02;97861.50;;;18.03;52.75
66857;BME280;53766;50.280;19.160;2024-03-02T12:55:30;97852.47;;;18.04;52.61
66857;BME280;53766;50.280;19.160;2024-03-02T12:57:58;97862.31;;;18.04;52.73
66857;BME280;53766;50.280;19.160;2024-03-02T13:00:26;97858.00;;;18.03;52.64